Pellston Regional Airport of Emmet County Airport
KPLN : now visible

Airfield :











YOU CAN JOIN US ON...

 
LOGIN :

Register | Disclaimer

   EN    FR    IT 

 









Legend :    VFR   Marginal VFR   IFR   Intensive IFR   Very Intensive IFR
Visi :
Ceiling :
>= 8 km
>= 3000ft
5 to 8 km
1000 to 3000 ft
1500m to 5 km
500 to 1000 ft
800 to 1500m
200 to 500 ft
< 800m
< 200 ft
Symbols :   Thunderstorms  Fog  Heavy snow  Heavy precipitations  Wind > 20 kt






- Airport Elevation : 721 ft
- IATA code : PLN


KPLN - Pellston Regional of Emmet County

CURRENT METAR :
  • 021254Z AUTO 15006KT 10SM CLR M01/M07 A2998 RMK AO2 SLP162 T10061072

EXPIRED METARs :
  • 021154Z AUTO 18007G15KT 10SM CLR 00/M07 A2999 RMK AO2 SLP165 T00001072 10006 21011 58020
  • 021054Z AUTO 18007KT 10SM CLR 01/M08 A3001 RMK AO2 SLP172 T00061078

TAF KPLN
Valid from the 02 at 12:00 until the 03 at 12:00 UTC


021120Z 0212/0312 18010G18KT P6SM SCT040 BKN080
FM030600 21010G18KT P6SM VCSH SCT015 OVC025
FM030900 26012G21KT 3SM -SHRA BR OVC015
FM031100 28018G31KT 2SM -SHRASN BR OVC015
KZMP FIR / North America



MET'MAP, your aeronautical weather chart ! - Copyright ORBIFLY December 2007 - Disclaimer

ORBIFLY MET'MAP TEAM :

Programming & Development : Alexandra Zaïnal
Original concept : Baudouin d'Aumeries
Technical & hardware support : Manuel Goepfert
Assistance : Marc-Olivier Méhu




SOURCES & CREDITS :

   NOAA       Earth
Advisory